createdAt,value
2023-03-22T00:01:28.218Z,83.60
2023-03-22T00:03:55.564Z,81.20
2023-03-22T00:06:26.830Z,89.00
2023-03-22T00:08:54.118Z,85.20
2023-03-22T00:11:26.224Z,82.50
2023-03-22T00:13:54.331Z,83.70
2023-03-22T00:16:21.907Z,92.10
2023-03-22T00:18:59.127Z,84.10
2023-03-22T00:21:26.316Z,80.30
2023-03-22T00:23:53.260Z,88.30
2023-03-22T00:26:20.185Z,82.20
2023-03-22T00:28:47.274Z,92.60
2023-03-22T00:31:14.830Z,89.00
2023-03-22T00:33:43.229Z,90.20
2023-03-22T00:36:11.753Z,79.50
2023-03-22T00:38:43.461Z,77.30
2023-03-22T00:41:13.764Z,80.90
2023-03-22T00:43:41.710Z,73.60
2023-03-22T00:46:09.905Z,85.60
2023-03-22T00:48:37.006Z,72.80
2023-03-22T00:51:04.999Z,65.40
2023-03-22T00:53:33.121Z,69.10
2023-03-22T00:56:00.409Z,72.30
2023-03-22T00:58:28.186Z,70.80
2023-03-22T01:00:55.055Z,70.20
2023-03-22T01:03:24.103Z,80.50
2023-03-22T01:05:55.881Z,83.40
2023-03-22T01:08:23.642Z,75.50
2023-03-22T01:10:51.601Z,80.10
2023-03-22T01:13:18.731Z,90.80
2023-03-22T01:15:49.139Z,71.40
2023-03-22T01:18:16.390Z,65.30
2023-03-22T01:20:43.466Z,68.60
2023-03-22T01:23:10.481Z,82.60
2023-03-22T01:25:37.674Z,75.70
2023-03-22T01:28:06.288Z,71.40
2023-03-22T01:30:33.217Z,82.30
2023-03-22T01:33:00.906Z,84.60
2023-03-22T01:35:28.036Z,83.10
2023-03-22T01:37:55.409Z,84.10
2023-03-22T01:40:22.435Z,96.70
2023-03-22T01:42:49.792Z,94.90
2023-03-22T01:45:34.632Z,87.80
2023-03-22T01:48:07.953Z,92.60
2023-03-22T01:50:39.143Z,90.50
2023-03-22T01:53:08.239Z,82.10
2023-03-22T01:55:37.454Z,78.50
2023-03-22T01:58:17.610Z,79.40
2023-03-22T02:00:51.348Z,89.00
2023-03-22T02:04:03.323Z,87.00
2023-03-22T02:06:31.854Z,86.20
2023-03-22T02:09:10.590Z,81.40
2023-03-22T02:11:46.609Z,85.60
2023-03-22T02:14:45.711Z,101.50
2023-03-22T02:17:59.297Z,86.00
2023-03-22T02:20:47.799Z,91.30
2023-03-22T02:23:32.730Z,95.50
2023-03-22T02:26:41.616Z,77.70
2023-03-22T02:29:38.614Z,102.30
2023-03-22T02:32:36.760Z,90.00
2023-03-22T02:35:25.735Z,89.50
2023-03-22T02:38:12.083Z,90.40
2023-03-22T02:40:57.538Z,85.20
2023-03-22T02:43:38.942Z,91.50
2023-03-22T02:46:09.644Z,98.50
2023-03-22T02:49:03.777Z,81.10
2023-03-22T02:51:58.772Z,82.90
2023-03-22T02:54:35.109Z,73.60
2023-03-22T02:57:13.376Z,98.90
2023-03-22T02:59:42.957Z,84.60
2023-03-22T03:02:16.852Z,85.40
2023-03-22T03:04:49.381Z,84.30
2023-03-22T03:07:22.194Z,75.00
2023-03-22T03:09:51.188Z,89.50
2023-03-22T03:12:22.793Z,89.20
2023-03-22T03:14:51.641Z,85.10
2023-03-22T03:17:44.311Z,86.70
2023-03-22T03:20:39.542Z,79.50
2023-03-22T03:23:25.160Z,99.00
2023-03-22T03:26:05.834Z,130.00
2023-03-22T03:28:37.859Z,103.10
2023-03-22T03:31:09.182Z,78.60
2023-03-22T03:33:44.128Z,81.60
2023-03-22T03:36:16.787Z,86.90
2023-03-22T03:38:49.171Z,86.00
2023-03-22T03:41:21.220Z,100.70
2023-03-22T03:43:51.007Z,89.50
2023-03-22T03:46:18.407Z,82.70
2023-03-22T03:48:49.627Z,87.80
2023-03-22T03:51:17.619Z,78.90
2023-03-22T03:53:44.833Z,83.50
2023-03-22T03:56:11.924Z,102.40
2023-03-22T04:01:11.636Z,84.60
2023-03-22T04:04:09.094Z,83.10
2023-03-22T04:06:49.069Z,81.50
2023-03-22T04:09:19.637Z,99.90
2023-03-22T04:11:55.241Z,118.60
2023-03-22T04:14:24.129Z,107.90
2023-03-22T04:16:51.631Z,102.20
2023-03-22T04:19:22.359Z,102.40
2023-03-22T04:21:52.569Z,95.90
2023-03-22T04:24:21.292Z,103.00
2023-03-22T04:26:51.906Z,119.40
2023-03-22T04:29:22.484Z,97.00
2023-03-22T04:31:53.406Z,95.20
2023-03-22T04:34:29.313Z,98.20
2023-03-22T04:37:07.562Z,89.40
2023-03-22T04:39:44.082Z,108.80
2023-03-22T04:42:23.914Z,106.50
2023-03-22T04:44:58.116Z,98.30
2023-03-22T04:47:25.695Z,105.80
2023-03-22T04:49:53.197Z,103.20
2023-03-22T04:52:20.747Z,96.80
2023-03-22T04:54:52.164Z,102.80
2023-03-22T04:57:19.418Z,106.70
2023-03-22T04:59:47.642Z,99.90
2023-03-22T05:02:16.428Z,98.60
2023-03-22T05:04:43.936Z,91.70
2023-03-22T05:07:22.625Z,95.70
2023-03-22T05:09:53.511Z,101.30
2023-03-22T05:12:20.596Z,110.40
2023-03-22T05:15:00.611Z,96.80
2023-03-22T05:17:31.518Z,111.10
2023-03-22T05:20:07.757Z,108.10
2023-03-22T05:22:37.521Z,112.30
2023-03-22T05:25:05.952Z,103.80
2023-03-22T05:27:34.539Z,100.60
2023-03-22T05:30:21.181Z,94.90
2023-03-22T05:33:03.252Z,87.80
2023-03-22T05:35:34.436Z,103.80
2023-03-22T05:38:02.686Z,107.40
2023-03-22T05:40:32.768Z,105.20
2023-03-22T05:43:00.606Z,92.30
2023-03-22T05:45:36.496Z,103.40
2023-03-22T05:48:20.423Z,95.60
2023-03-22T05:50:47.572Z,96.30
2023-03-22T05:53:16.551Z,87.10
2023-03-22T05:56:01.796Z,102.50
2023-03-22T05:58:31.979Z,88.30
2023-03-22T06:01:11.665Z,94.20
2023-03-22T06:03:48.075Z,115.70
2023-03-22T06:06:24.314Z,85.80
2023-03-22T06:09:15.954Z,107.10
2023-03-22T06:11:50.913Z,92.00
2023-03-22T06:14:18.339Z,93.30
2023-03-22T06:17:08.231Z,88.50
2023-03-22T06:19:40.333Z,97.60
2023-03-22T06:22:08.354Z,90.80
2023-03-22T06:24:36.282Z,95.30
2023-03-22T06:27:06.811Z,102.60
2023-03-22T06:29:35.501Z,97.80
2023-03-22T06:32:03.703Z,101.90
2023-03-22T06:34:32.484Z,93.50
2023-03-22T06:37:00.382Z,95.60
2023-03-22T06:39:33.418Z,104.00
2023-03-22T06:42:00.639Z,103.90
2023-03-22T06:44:28.005Z,107.50
2023-03-22T06:47:15.669Z,88.80
2023-03-22T06:50:12.322Z,106.00
2023-03-22T06:53:01.376Z,98.20
2023-03-22T06:55:32.703Z,88.50
2023-03-22T06:58:01.873Z,105.10
2023-03-22T07:00:30.417Z,108.10
2023-03-22T07:02:58.776Z,92.10
2023-03-22T07:05:35.296Z,92.50
2023-03-22T07:08:02.466Z,101.20
2023-03-22T07:10:37.617Z,94.40
2023-03-22T07:13:06.023Z,97.60
2023-03-22T07:15:34.562Z,90.10
2023-03-22T07:18:15.167Z,88.60
2023-03-22T07:20:42.232Z,76.40
2023-03-22T07:23:10.370Z,71.20
2023-03-22T07:25:43.805Z,82.30
2023-03-22T07:28:23.824Z,80.10
2023-03-22T07:31:03.484Z,62.40
2023-03-22T07:33:34.944Z,71.10
2023-03-22T07:36:02.924Z,80.30
2023-03-22T07:38:30.429Z,79.90
2023-03-22T07:40:58.301Z,61.20
2023-03-22T07:43:30.033Z,67.60
2023-03-22T07:46:09.017Z,56.80
2023-03-22T07:48:58.002Z,46.80
2023-03-22T07:51:48.801Z,39.30
2023-03-22T07:54:32.210Z,34.50
2023-03-22T07:57:01.777Z,42.90
2023-03-22T07:59:30.786Z,25.20
2023-03-22T08:01:59.351Z,33.30
2023-03-22T08:04:31.521Z,30.50
2023-03-22T08:07:09.485Z,34.20
2023-03-22T08:09:38.826Z,40.20
2023-03-22T08:12:06.717Z,54.60
2023-03-22T08:14:36.822Z,39.60
2023-03-22T08:17:07.477Z,54.10
2023-03-22T11:34:46.727Z,101.20
2023-03-22T11:37:18.501Z,107.10
2023-03-22T11:40:00.274Z,79.60
2023-03-22T11:42:29.058Z,100.90
2023-03-22T11:44:57.447Z,70.00
2023-03-22T11:47:32.986Z,69.20
2023-03-22T11:50:05.181Z,70.10
2023-03-22T11:55:03.122Z,65.30
2023-03-22T11:57:34.900Z,82.50
2023-03-22T12:00:27.259Z,70.30
2023-03-22T12:03:04.886Z,92.00
2023-03-22T12:05:43.068Z,102.30
2023-03-22T12:08:27.351Z,105.70
2023-03-22T12:11:06.395Z,66.70
2023-03-22T12:13:50.223Z,84.60
2023-03-22T12:16:25.276Z,84.80
2023-03-22T12:19:26.152Z,65.10
2023-03-22T12:21:55.552Z,76.20
2023-03-22T12:24:33.314Z,103.30
2023-03-22T12:27:21.791Z,73.60
2023-03-22T12:30:18.358Z,93.10
2023-03-22T12:33:06.861Z,87.70
2023-03-22T12:35:42.573Z,130.40
2023-03-22T12:38:24.450Z,120.70
2023-03-22T12:40:56.187Z,108.70
2023-03-22T12:43:56.451Z,97.60
2023-03-22T12:46:32.396Z,90.90
2023-03-22T12:49:46.013Z,88.80
2023-03-22T12:52:21.355Z,83.10
2023-03-22T12:54:52.975Z,90.60
2023-03-22T12:57:21.404Z,80.10
2023-03-22T12:59:52.468Z,80.00
2023-03-22T13:02:30.501Z,101.10
2023-03-22T13:05:05.317Z,85.10
2023-03-22T13:07:49.692Z,79.30
2023-03-22T13:10:34.494Z,93.80
2023-03-22T13:13:23.652Z,84.00
2023-03-22T13:16:13.760Z,59.00
2023-03-22T13:18:45.442Z,72.60
2023-03-22T13:21:21.378Z,83.30
2023-03-22T13:24:06.182Z,72.50
2023-03-22T13:26:55.169Z,92.00
2023-03-22T13:29:42.133Z,105.30
2023-03-22T13:32:38.024Z,78.10
2023-03-22T13:35:22.096Z,75.40
2023-03-22T13:37:52.001Z,67.10
2023-03-22T13:40:35.184Z,49.20
2023-03-22T13:43:24.505Z,45.30
2023-03-22T13:46:06.458Z,33.00
2023-03-22T13:48:52.610Z,45.10
2023-03-22T13:51:27.992Z,41.40
2023-03-22T13:54:08.534Z,48.80
2023-03-22T13:56:56.561Z,47.20
2023-03-22T13:59:28.050Z,33.30
2023-03-22T14:01:59.742Z,31.70
2023-03-22T14:04:31.576Z,39.50
2023-03-22T14:07:07.282Z,40.20
2023-03-22T14:09:51.463Z,34.20
2023-03-22T14:12:31.209Z,40.50
2023-03-22T14:15:04.852Z,41.30
2023-03-22T14:17:58.376Z,36.50
2023-03-22T14:20:34.705Z,89.60
